<?xml version='1.0' encoding='UTF-8'?>
<gpx version="1.1" creator="https://www.komoot.de" xmlns="http://www.topografix.com/GPX/1/1" xmlns:xsi="http://www.w3.org/2001/XMLSchema-instance" xsi:schemaLocation="http://www.topografix.com/GPX/1/1 http://www.topografix.com/GPX/1/1/gpx.xsd">
  <metadata>
    <name>Caminata</name>
    <author>
      <link href="https://www.komoot.de">
        <text>komoot</text>
        <type>text/html</type>
      </link>
    </author>
  </metadata>
  <trk>
    <name>Caminata</name>
    <trkseg>
      <trkpt lat="36.894418" lon="-3.523545">
        <ele>360.942101</ele>
        <time>2023-10-08T06:05:36.017Z</time>
      </trkpt>
      <trkpt lat="36.894473" lon="-3.523634">
        <ele>360.942101</ele>
        <time>2023-10-08T06:05:46.066Z</time>
      </trkpt>
      <trkpt lat="36.894517" lon="-3.523742">
        <ele>360.942101</ele>
        <time>2023-10-08T06:06:04.056Z</time>
      </trkpt>
      <trkpt lat="36.894585" lon="-3.523829">
        <ele>360.942101</ele>
        <time>2023-10-08T06:06:11.083Z</time>
      </trkpt>
      <trkpt lat="36.894656" lon="-3.523900">
        <ele>360.942101</ele>
        <time>2023-10-08T06:06:18.053Z</time>
      </trkpt>
      <trkpt lat="36.894718" lon="-3.523997">
        <ele>360.942101</ele>
        <time>2023-10-08T06:06:28.092Z</time>
      </trkpt>
      <trkpt lat="36.894797" lon="-3.524067">
        <ele>360.942101</ele>
        <time>2023-10-08T06:06:36.054Z</time>
      </trkpt>
      <trkpt lat="36.894870" lon="-3.524143">
        <ele>360.942101</ele>
        <time>2023-10-08T06:06:43.055Z</time>
      </trkpt>
      <trkpt lat="36.894953" lon="-3.524209">
        <ele>360.942101</ele>
        <time>2023-10-08T06:06:51.054Z</time>
      </trkpt>
      <trkpt lat="36.895025" lon="-3.524281">
        <ele>360.942101</ele>
        <time>2023-10-08T06:07:00.058Z</time>
      </trkpt>
      <trkpt lat="36.895078" lon="-3.524381">
        <ele>361.139833</ele>
        <time>2023-10-08T06:07:10.057Z</time>
      </trkpt>
      <trkpt lat="36.895155" lon="-3.524451">
        <ele>361.492457</ele>
        <time>2023-10-08T06:07:18.054Z</time>
      </trkpt>
      <trkpt lat="36.895225" lon="-3.524524">
        <ele>361.830082</ele>
        <time>2023-10-08T06:07:25.057Z</time>
      </trkpt>
      <trkpt lat="36.895293" lon="-3.524610">
        <ele>362.188329</ele>
        <time>2023-10-08T06:07:34.061Z</time>
      </trkpt>
      <trkpt lat="36.895367" lon="-3.524699">
        <ele>362.568642</ele>
        <time>2023-10-08T06:07:43.060Z</time>
      </trkpt>
      <trkpt lat="36.895443" lon="-3.524775">
        <ele>362.929101</ele>
        <time>2023-10-08T06:07:51.056Z</time>
      </trkpt>
      <trkpt lat="36.895519" lon="-3.524853">
        <ele>363.293290</ele>
        <time>2023-10-08T06:07:59.056Z</time>
      </trkpt>
      <trkpt lat="36.895580" lon="-3.524942">
        <ele>363.640505</ele>
        <time>2023-10-08T06:08:07.063Z</time>
      </trkpt>
      <trkpt lat="36.895650" lon="-3.525023">
        <ele>363.993776</ele>
        <time>2023-10-08T06:08:15.061Z</time>
      </trkpt>
      <trkpt lat="36.895710" lon="-3.525120">
        <ele>364.357033</ele>
        <time>2023-10-08T06:08:23.057Z</time>
      </trkpt>
      <trkpt lat="36.895782" lon="-3.525198">
        <ele>364.709894</ele>
        <time>2023-10-08T06:08:33.062Z</time>
      </trkpt>
      <trkpt lat="36.895851" lon="-3.525282">
        <ele>365.066596</ele>
        <time>2023-10-08T06:08:41.060Z</time>
      </trkpt>
      <trkpt lat="36.895853" lon="-3.525403">
        <ele>365.425103</ele>
        <time>2023-10-08T06:08:58.059Z</time>
      </trkpt>
      <trkpt lat="36.895762" lon="-3.525456">
        <ele>365.796942</ele>
        <time>2023-10-08T06:09:05.062Z</time>
      </trkpt>
      <trkpt lat="36.895792" lon="-3.525579">
        <ele>366.177866</ele>
        <time>2023-10-08T06:09:21.061Z</time>
      </trkpt>
      <trkpt lat="36.895873" lon="-3.525648">
        <ele>366.540901</ele>
        <time>2023-10-08T06:09:33.059Z</time>
      </trkpt>
      <trkpt lat="36.895961" lon="-3.525689">
        <ele>366.888749</ele>
        <time>2023-10-08T06:09:42.084Z</time>
      </trkpt>
      <trkpt lat="36.896055" lon="-3.525732">
        <ele>367.259499</ele>
        <time>2023-10-08T06:09:54.084Z</time>
      </trkpt>
      <trkpt lat="36.896151" lon="-3.525756">
        <ele>367.599767</ele>
        <time>2023-10-08T06:10:00.064Z</time>
      </trkpt>
      <trkpt lat="36.896245" lon="-3.525805">
        <ele>367.501782</ele>
        <time>2023-10-08T06:10:06.057Z</time>
      </trkpt>
      <trkpt lat="36.896331" lon="-3.525866">
        <ele>367.406654</ele>
        <time>2023-10-08T06:10:15.057Z</time>
      </trkpt>
      <trkpt lat="36.896420" lon="-3.525914">
        <ele>367.313399</ele>
        <time>2023-10-08T06:10:23.059Z</time>
      </trkpt>
      <trkpt lat="36.896512" lon="-3.525964">
        <ele>367.216884</ele>
        <time>2023-10-08T06:10:31.057Z</time>
      </trkpt>
      <trkpt lat="36.896609" lon="-3.525961">
        <ele>367.123529</ele>
        <time>2023-10-08T06:10:37.061Z</time>
      </trkpt>
      <trkpt lat="36.896702" lon="-3.525947">
        <ele>367.033404</ele>
        <time>2023-10-08T06:10:44.059Z</time>
      </trkpt>
      <trkpt lat="36.896789" lon="-3.525974">
        <ele>366.947159</ele>
        <time>2023-10-08T06:10:53.056Z</time>
      </trkpt>
      <trkpt lat="36.897070" lon="-3.525919">
        <ele>366.673509</ele>
        <time>2023-10-08T06:11:46.064Z</time>
      </trkpt>
      <trkpt lat="36.897149" lon="-3.525853">
        <ele>366.582097</ele>
        <time>2023-10-08T06:11:56.058Z</time>
      </trkpt>
      <trkpt lat="36.897239" lon="-3.525778">
        <ele>366.478038</ele>
        <time>2023-10-08T06:12:06.059Z</time>
      </trkpt>
      <trkpt lat="36.897340" lon="-3.525774">
        <ele>366.380814</ele>
        <time>2023-10-08T06:12:17.087Z</time>
      </trkpt>
      <trkpt lat="36.897435" lon="-3.525758">
        <ele>366.288586</ele>
        <time>2023-10-08T06:12:25.066Z</time>
      </trkpt>
      <trkpt lat="36.897600" lon="-3.525782">
        <ele>366.128764</ele>
        <time>2023-10-08T06:12:53.055Z</time>
      </trkpt>
      <trkpt lat="36.897698" lon="-3.525765">
        <ele>366.033572</ele>
        <time>2023-10-08T06:12:58.057Z</time>
      </trkpt>
      <trkpt lat="36.897788" lon="-3.525754">
        <ele>365.946568</ele>
        <time>2023-10-08T06:13:01.055Z</time>
      </trkpt>
      <trkpt lat="36.897882" lon="-3.525771">
        <ele>365.928882</ele>
        <time>2023-10-08T06:13:10.057Z</time>
      </trkpt>
      <trkpt lat="36.897961" lon="-3.525828">
        <ele>366.187705</ele>
        <time>2023-10-08T06:13:16.053Z</time>
      </trkpt>
      <trkpt lat="36.898054" lon="-3.525841">
        <ele>366.453258</ele>
        <time>2023-10-08T06:13:20.057Z</time>
      </trkpt>
      <trkpt lat="36.898124" lon="-3.525923">
        <ele>366.725447</ele>
        <time>2023-10-08T06:13:28.100Z</time>
      </trkpt>
      <trkpt lat="36.898112" lon="-3.526038">
        <ele>366.988634</ele>
        <time>2023-10-08T06:13:35.097Z</time>
      </trkpt>
      <trkpt lat="36.898118" lon="-3.526154">
        <ele>367.252429</ele>
        <time>2023-10-08T06:13:46.061Z</time>
      </trkpt>
      <trkpt lat="36.898112" lon="-3.526275">
        <ele>367.527547</ele>
        <time>2023-10-08T06:13:54.306Z</time>
      </trkpt>
      <trkpt lat="36.898097" lon="-3.526398">
        <ele>367.809904</ele>
        <time>2023-10-08T06:14:01.057Z</time>
      </trkpt>
      <trkpt lat="36.898129" lon="-3.526508">
        <ele>368.075536</ele>
        <time>2023-10-08T06:14:08.052Z</time>
      </trkpt>
      <trkpt lat="36.898124" lon="-3.526633">
        <ele>368.359559</ele>
        <time>2023-10-08T06:14:16.051Z</time>
      </trkpt>
      <trkpt lat="36.898126" lon="-3.526746">
        <ele>368.616058</ele>
        <time>2023-10-08T06:14:24.055Z</time>
      </trkpt>
      <trkpt lat="36.898131" lon="-3.526869">
        <ele>368.895549</ele>
        <time>2023-10-08T06:14:32.053Z</time>
      </trkpt>
      <trkpt lat="36.898180" lon="-3.526975">
        <ele>369.173396</ele>
        <time>2023-10-08T06:14:40.058Z</time>
      </trkpt>
      <trkpt lat="36.898185" lon="-3.527087">
        <ele>369.427959</ele>
        <time>2023-10-08T06:14:48.060Z</time>
      </trkpt>
      <trkpt lat="36.898192" lon="-3.527200">
        <ele>369.685163</ele>
        <time>2023-10-08T06:14:54.054Z</time>
      </trkpt>
      <trkpt lat="36.898235" lon="-3.527312">
        <ele>369.967103</ele>
        <time>2023-10-08T06:15:01.054Z</time>
      </trkpt>
      <trkpt lat="36.898274" lon="-3.527421">
        <ele>370.238091</ele>
        <time>2023-10-08T06:15:09.055Z</time>
      </trkpt>
      <trkpt lat="36.898299" lon="-3.527537">
        <ele>370.510727</ele>
        <time>2023-10-08T06:15:18.054Z</time>
      </trkpt>
      <trkpt lat="36.898326" lon="-3.527649">
        <ele>370.776191</ele>
        <time>2023-10-08T06:15:26.053Z</time>
      </trkpt>
      <trkpt lat="36.898355" lon="-3.527759">
        <ele>371.110028</ele>
        <time>2023-10-08T06:15:34.057Z</time>
      </trkpt>
      <trkpt lat="36.898376" lon="-3.527880">
        <ele>371.717412</ele>
        <time>2023-10-08T06:15:41.055Z</time>
      </trkpt>
      <trkpt lat="36.898439" lon="-3.527974">
        <ele>372.319055</ele>
        <time>2023-10-08T06:15:48.050Z</time>
      </trkpt>
      <trkpt lat="36.898469" lon="-3.528081">
        <ele>372.875268</ele>
        <time>2023-10-08T06:15:55.054Z</time>
      </trkpt>
      <trkpt lat="36.898521" lon="-3.528185">
        <ele>373.476950</ele>
        <time>2023-10-08T06:16:05.061Z</time>
      </trkpt>
      <trkpt lat="36.898597" lon="-3.528263">
        <ele>374.080062</ele>
        <time>2023-10-08T06:16:12.061Z</time>
      </trkpt>
      <trkpt lat="36.898646" lon="-3.528370">
        <ele>374.684919</ele>
        <time>2023-10-08T06:16:21.100Z</time>
      </trkpt>
      <trkpt lat="36.898673" lon="-3.528479">
        <ele>375.244681</ele>
        <time>2023-10-08T06:16:29.072Z</time>
      </trkpt>
      <trkpt lat="36.898708" lon="-3.528587">
        <ele>375.816322</ele>
        <time>2023-10-08T06:16:38.091Z</time>
      </trkpt>
      <trkpt lat="36.898787" lon="-3.528664">
        <ele>376.430741</ele>
        <time>2023-10-08T06:16:45.107Z</time>
      </trkpt>
      <trkpt lat="36.898881" lon="-3.528680">
        <ele>377.012670</ele>
        <time>2023-10-08T06:16:51.087Z</time>
      </trkpt>
      <trkpt lat="36.898970" lon="-3.528701">
        <ele>377.568245</ele>
        <time>2023-10-08T06:16:58.078Z</time>
      </trkpt>
      <trkpt lat="36.899062" lon="-3.528762">
        <ele>378.207013</ele>
        <time>2023-10-08T06:17:08.107Z</time>
      </trkpt>
      <trkpt lat="36.899145" lon="-3.528825">
        <ele>378.802603</ele>
        <time>2023-10-08T06:17:14.069Z</time>
      </trkpt>
      <trkpt lat="36.899214" lon="-3.528906">
        <ele>379.383144</ele>
        <time>2023-10-08T06:17:21.099Z</time>
      </trkpt>
      <trkpt lat="36.899303" lon="-3.528921">
        <ele>379.934021</ele>
        <time>2023-10-08T06:17:30.106Z</time>
      </trkpt>
      <trkpt lat="36.899410" lon="-3.528970">
        <ele>380.633006</ele>
        <time>2023-10-08T06:18:31.115Z</time>
      </trkpt>
      <trkpt lat="36.899389" lon="-3.529127">
        <ele>381.413859</ele>
        <time>2023-10-08T06:19:19.087Z</time>
      </trkpt>
      <trkpt lat="36.899196" lon="-3.529356">
        <ele>386.041708</ele>
        <time>2023-10-08T06:19:45.092Z</time>
      </trkpt>
      <trkpt lat="36.899106" lon="-3.529405">
        <ele>388.387078</ele>
        <time>2023-10-08T06:19:53.104Z</time>
      </trkpt>
      <trkpt lat="36.899068" lon="-3.529511">
        <ele>390.606648</ele>
        <time>2023-10-08T06:20:06.099Z</time>
      </trkpt>
      <trkpt lat="36.899302" lon="-3.529601">
        <ele>396.456152</ele>
        <time>2023-10-08T06:21:23.075Z</time>
      </trkpt>
      <trkpt lat="36.899350" lon="-3.529496">
        <ele>398.767082</ele>
        <time>2023-10-08T06:21:33.111Z</time>
      </trkpt>
      <trkpt lat="36.899417" lon="-3.529342">
        <ele>402.116871</ele>
        <time>2023-10-08T06:22:14.665Z</time>
      </trkpt>
      <trkpt lat="36.899505" lon="-3.529374">
        <ele>404.306573</ele>
        <time>2023-10-08T06:22:35.070Z</time>
      </trkpt>
      <trkpt lat="36.899639" lon="-3.529592">
        <ele>409.560246</ele>
        <time>2023-10-08T06:23:18.103Z</time>
      </trkpt>
      <trkpt lat="36.899709" lon="-3.529803">
        <ele>413.925014</ele>
        <time>2023-10-08T06:24:55.120Z</time>
      </trkpt>
      <trkpt lat="36.899753" lon="-3.529929">
        <ele>416.552044</ele>
        <time>2023-10-08T06:25:36.092Z</time>
      </trkpt>
      <trkpt lat="36.899829" lon="-3.529995">
        <ele>418.762867</ele>
        <time>2023-10-08T06:25:53.153Z</time>
      </trkpt>
      <trkpt lat="36.899888" lon="-3.530179">
        <ele>422.550668</ele>
        <time>2023-10-08T06:26:33.139Z</time>
      </trkpt>
      <trkpt lat="36.899860" lon="-3.530361">
        <ele>426.113811</ele>
        <time>2023-10-08T06:27:43.086Z</time>
      </trkpt>
      <trkpt lat="36.899859" lon="-3.530548">
        <ele>429.757653</ele>
        <time>2023-10-08T06:28:53.084Z</time>
      </trkpt>
      <trkpt lat="36.899990" lon="-3.530854">
        <ele>436.520810</ele>
        <time>2023-10-08T06:29:54.081Z</time>
      </trkpt>
      <trkpt lat="36.900041" lon="-3.530947">
        <ele>438.718100</ele>
        <time>2023-10-08T06:30:07.097Z</time>
      </trkpt>
      <trkpt lat="36.900132" lon="-3.530964">
        <ele>440.960035</ele>
        <time>2023-10-08T06:30:21.109Z</time>
      </trkpt>
      <trkpt lat="36.900205" lon="-3.531033">
        <ele>443.189730</ele>
        <time>2023-10-08T06:30:30.085Z</time>
      </trkpt>
      <trkpt lat="36.900517" lon="-3.531190">
        <ele>451.384429</ele>
        <time>2023-10-08T06:31:23.116Z</time>
      </trkpt>
      <trkpt lat="36.900640" lon="-3.531334">
        <ele>455.489935</ele>
        <time>2023-10-08T06:31:36.103Z</time>
      </trkpt>
      <trkpt lat="36.900712" lon="-3.531406">
        <ele>457.736272</ele>
        <time>2023-10-08T06:31:44.086Z</time>
      </trkpt>
      <trkpt lat="36.900814" lon="-3.531577">
        <ele>461.893065</ele>
        <time>2023-10-08T06:32:17.101Z</time>
      </trkpt>
      <trkpt lat="36.900897" lon="-3.531628">
        <ele>464.146422</ele>
        <time>2023-10-08T06:32:28.113Z</time>
      </trkpt>
      <trkpt lat="36.901037" lon="-3.531839">
        <ele>469.580069</ele>
        <time>2023-10-08T06:33:30.074Z</time>
      </trkpt>
      <trkpt lat="36.901106" lon="-3.531913">
        <ele>472.094306</ele>
        <time>2023-10-08T06:33:41.059Z</time>
      </trkpt>
      <trkpt lat="36.901184" lon="-3.531979">
        <ele>474.699224</ele>
        <time>2023-10-08T06:33:54.107Z</time>
      </trkpt>
      <trkpt lat="36.901262" lon="-3.532036">
        <ele>477.198029</ele>
        <time>2023-10-08T06:34:10.067Z</time>
      </trkpt>
      <trkpt lat="36.901315" lon="-3.532135">
        <ele>479.833158</ele>
        <time>2023-10-08T06:34:24.086Z</time>
      </trkpt>
      <trkpt lat="36.901494" lon="-3.532418">
        <ele>487.814025</ele>
        <time>2023-10-08T06:37:58.081Z</time>
      </trkpt>
      <trkpt lat="36.901674" lon="-3.532593">
        <ele>494.120357</ele>
        <time>2023-10-08T06:38:42.061Z</time>
      </trkpt>
      <trkpt lat="36.901710" lon="-3.532700">
        <ele>496.687959</ele>
        <time>2023-10-08T06:38:53.049Z</time>
      </trkpt>
      <trkpt lat="36.901629" lon="-3.532758">
        <ele>499.269662</ele>
        <time>2023-10-08T06:39:26.053Z</time>
      </trkpt>
      <trkpt lat="36.901539" lon="-3.532779">
        <ele>501.801974</ele>
        <time>2023-10-08T06:39:37.054Z</time>
      </trkpt>
      <trkpt lat="36.901607" lon="-3.532857">
        <ele>504.354225</ele>
        <time>2023-10-08T06:39:54.053Z</time>
      </trkpt>
      <trkpt lat="36.901663" lon="-3.532945">
        <ele>506.841735</ele>
        <time>2023-10-08T06:40:06.053Z</time>
      </trkpt>
      <trkpt lat="36.901679" lon="-3.533103">
        <ele>510.364341</ele>
        <time>2023-10-08T06:41:34.059Z</time>
      </trkpt>
      <trkpt lat="36.901726" lon="-3.533202">
        <ele>512.910874</ele>
        <time>2023-10-08T06:41:44.054Z</time>
      </trkpt>
      <trkpt lat="36.901807" lon="-3.533253">
        <ele>515.419242</ele>
        <time>2023-10-08T06:41:52.053Z</time>
      </trkpt>
      <trkpt lat="36.901877" lon="-3.533333">
        <ele>518.042163</ele>
        <time>2023-10-08T06:42:02.052Z</time>
      </trkpt>
      <trkpt lat="36.901948" lon="-3.533444">
        <ele>519.907806</ele>
        <time>2023-10-08T06:47:14.062Z</time>
      </trkpt>
      <trkpt lat="36.901958" lon="-3.533561">
        <ele>521.242512</ele>
        <time>2023-10-08T06:47:41.053Z</time>
      </trkpt>
      <trkpt lat="36.901970" lon="-3.533678">
        <ele>522.580530</ele>
        <time>2023-10-08T06:47:48.056Z</time>
      </trkpt>
      <trkpt lat="36.901975" lon="-3.533796">
        <ele>523.920898</ele>
        <time>2023-10-08T06:47:57.077Z</time>
      </trkpt>
      <trkpt lat="36.902001" lon="-3.533915">
        <ele>525.320208</ele>
        <time>2023-10-08T06:48:03.051Z</time>
      </trkpt>
      <trkpt lat="36.902043" lon="-3.534021">
        <ele>526.662084</ele>
        <time>2023-10-08T06:48:20.057Z</time>
      </trkpt>
      <trkpt lat="36.902051" lon="-3.534143">
        <ele>528.050590</ele>
        <time>2023-10-08T06:48:30.054Z</time>
      </trkpt>
      <trkpt lat="36.902041" lon="-3.534260">
        <ele>529.385295</ele>
        <time>2023-10-08T06:48:36.055Z</time>
      </trkpt>
      <trkpt lat="36.902036" lon="-3.534382">
        <ele>530.770973</ele>
        <time>2023-10-08T06:48:44.055Z</time>
      </trkpt>
      <trkpt lat="36.902033" lon="-3.534502">
        <ele>532.132813</ele>
        <time>2023-10-08T06:48:53.058Z</time>
      </trkpt>
      <trkpt lat="36.902059" lon="-3.534618">
        <ele>533.499325</ele>
        <time>2023-10-08T06:49:01.054Z</time>
      </trkpt>
      <trkpt lat="36.902071" lon="-3.534735">
        <ele>534.837342</ele>
        <time>2023-10-08T06:49:09.088Z</time>
      </trkpt>
      <trkpt lat="36.902136" lon="-3.534824">
        <ele>536.204558</ele>
        <time>2023-10-08T06:49:37.058Z</time>
      </trkpt>
      <trkpt lat="36.902155" lon="-3.534935">
        <ele>537.492165</ele>
        <time>2023-10-08T06:49:48.058Z</time>
      </trkpt>
      <trkpt lat="36.902139" lon="-3.535052">
        <ele>538.838576</ele>
        <time>2023-10-08T06:49:58.055Z</time>
      </trkpt>
      <trkpt lat="36.902112" lon="-3.535166">
        <ele>540.187215</ele>
        <time>2023-10-08T06:50:08.055Z</time>
      </trkpt>
      <trkpt lat="36.902077" lon="-3.535294">
        <ele>541.721670</ele>
        <time>2023-10-08T06:50:17.053Z</time>
      </trkpt>
      <trkpt lat="36.902077" lon="-3.535411">
        <ele>543.048815</ele>
        <time>2023-10-08T06:50:23.054Z</time>
      </trkpt>
      <trkpt lat="36.902063" lon="-3.535538">
        <ele>544.489290</ele>
        <time>2023-10-08T06:50:31.078Z</time>
      </trkpt>
      <trkpt lat="36.902073" lon="-3.535660">
        <ele>545.835720</ele>
        <time>2023-10-08T06:50:40.060Z</time>
      </trkpt>
      <trkpt lat="36.902075" lon="-3.535775">
        <ele>547.098580</ele>
        <time>2023-10-08T06:50:49.053Z</time>
      </trkpt>
      <trkpt lat="36.902059" lon="-3.535886">
        <ele>548.336866</ele>
        <time>2023-10-08T06:50:57.055Z</time>
      </trkpt>
      <trkpt lat="36.902093" lon="-3.535993">
        <ele>549.600943</ele>
        <time>2023-10-08T06:51:06.051Z</time>
      </trkpt>
      <trkpt lat="36.902124" lon="-3.536105">
        <ele>550.902141</ele>
        <time>2023-10-08T06:51:14.053Z</time>
      </trkpt>
      <trkpt lat="36.902135" lon="-3.536220">
        <ele>552.173702</ele>
        <time>2023-10-08T06:51:24.054Z</time>
      </trkpt>
      <trkpt lat="36.902161" lon="-3.536335">
        <ele>553.485753</ele>
        <time>2023-10-08T06:51:36.058Z</time>
      </trkpt>
      <trkpt lat="36.902228" lon="-3.536417">
        <ele>554.772848</ele>
        <time>2023-10-08T06:51:46.084Z</time>
      </trkpt>
      <trkpt lat="36.902311" lon="-3.536479">
        <ele>556.100198</ele>
        <time>2023-10-08T06:52:23.051Z</time>
      </trkpt>
      <trkpt lat="36.902396" lon="-3.536532">
        <ele>557.404207</ele>
        <time>2023-10-08T06:52:35.051Z</time>
      </trkpt>
      <trkpt lat="36.902488" lon="-3.536556">
        <ele>558.694490</ele>
        <time>2023-10-08T06:52:44.051Z</time>
      </trkpt>
      <trkpt lat="36.902576" lon="-3.536577">
        <ele>559.924468</ele>
        <time>2023-10-08T06:53:03.055Z</time>
      </trkpt>
      <trkpt lat="36.902679" lon="-3.536722">
        <ele>562.053766</ele>
        <time>2023-10-08T06:55:28.057Z</time>
      </trkpt>
      <trkpt lat="36.902775" lon="-3.536761">
        <ele>563.439580</ele>
        <time>2023-10-08T06:55:33.051Z</time>
      </trkpt>
      <trkpt lat="36.902862" lon="-3.536913">
        <ele>565.491765</ele>
        <time>2023-10-08T06:57:10.057Z</time>
      </trkpt>
      <trkpt lat="36.902916" lon="-3.537008">
        <ele>566.771390</ele>
        <time>2023-10-08T06:57:20.052Z</time>
      </trkpt>
      <trkpt lat="36.902967" lon="-3.537114">
        <ele>568.129535</ele>
        <time>2023-10-08T06:57:30.053Z</time>
      </trkpt>
      <trkpt lat="36.903042" lon="-3.537179">
        <ele>569.314150</ele>
        <time>2023-10-08T06:57:38.050Z</time>
      </trkpt>
      <trkpt lat="36.903088" lon="-3.537282">
        <ele>570.465187</ele>
        <time>2023-10-08T06:57:50.053Z</time>
      </trkpt>
      <trkpt lat="36.903142" lon="-3.537374">
        <ele>571.578646</ele>
        <time>2023-10-08T06:58:01.072Z</time>
      </trkpt>
      <trkpt lat="36.903208" lon="-3.537457">
        <ele>572.720675</ele>
        <time>2023-10-08T06:58:09.053Z</time>
      </trkpt>
      <trkpt lat="36.903262" lon="-3.537560">
        <ele>573.922329</ele>
        <time>2023-10-08T06:58:18.058Z</time>
      </trkpt>
      <trkpt lat="36.903322" lon="-3.537649">
        <ele>575.058077</ele>
        <time>2023-10-08T06:58:29.054Z</time>
      </trkpt>
      <trkpt lat="36.903236" lon="-3.537611">
        <ele>576.170941</ele>
        <time>2023-10-08T06:58:44.053Z</time>
      </trkpt>
      <trkpt lat="36.903158" lon="-3.537539">
        <ele>577.353807</ele>
        <time>2023-10-08T06:58:54.052Z</time>
      </trkpt>
      <trkpt lat="36.903058" lon="-3.537555">
        <ele>578.583858</ele>
        <time>2023-10-08T06:59:05.052Z</time>
      </trkpt>
      <trkpt lat="36.903015" lon="-3.537663">
        <ele>579.760959</ele>
        <time>2023-10-08T06:59:31.080Z</time>
      </trkpt>
      <trkpt lat="36.902927" lon="-3.537630">
        <ele>580.881887</ele>
        <time>2023-10-08T06:59:45.053Z</time>
      </trkpt>
      <trkpt lat="36.902891" lon="-3.537521">
        <ele>582.032497</ele>
        <time>2023-10-08T06:59:54.084Z</time>
      </trkpt>
      <trkpt lat="36.902829" lon="-3.537418">
        <ele>583.290325</ele>
        <time>2023-10-08T07:00:00.070Z</time>
      </trkpt>
      <trkpt lat="36.902756" lon="-3.537329">
        <ele>584.534239</ele>
        <time>2023-10-08T07:00:08.056Z</time>
      </trkpt>
      <trkpt lat="36.902674" lon="-3.537264">
        <ele>585.718790</ele>
        <time>2023-10-08T07:00:16.056Z</time>
      </trkpt>
      <trkpt lat="36.902590" lon="-3.537219">
        <ele>586.833761</ele>
        <time>2023-10-08T07:00:24.054Z</time>
      </trkpt>
      <trkpt lat="36.902494" lon="-3.537256">
        <ele>588.059431</ele>
        <time>2023-10-08T07:00:33.050Z</time>
      </trkpt>
      <trkpt lat="36.902442" lon="-3.537353">
        <ele>589.198818</ele>
        <time>2023-10-08T07:00:41.051Z</time>
      </trkpt>
      <trkpt lat="36.902473" lon="-3.537462">
        <ele>590.327554</ele>
        <time>2023-10-08T07:00:54.054Z</time>
      </trkpt>
      <trkpt lat="36.902553" lon="-3.537536">
        <ele>591.444931</ele>
        <time>2023-10-08T07:01:04.053Z</time>
      </trkpt>
      <trkpt lat="36.902620" lon="-3.537631">
        <ele>592.536193</ele>
        <time>2023-10-08T07:01:12.083Z</time>
      </trkpt>
      <trkpt lat="36.902660" lon="-3.537732">
        <ele>593.507179</ele>
        <time>2023-10-08T07:01:19.054Z</time>
      </trkpt>
      <trkpt lat="36.902677" lon="-3.537846">
        <ele>594.506225</ele>
        <time>2023-10-08T07:01:30.055Z</time>
      </trkpt>
      <trkpt lat="36.902656" lon="-3.537965">
        <ele>595.556083</ele>
        <time>2023-10-08T07:01:39.056Z</time>
      </trkpt>
      <trkpt lat="36.902566" lon="-3.538002">
        <ele>596.576742</ele>
        <time>2023-10-08T07:01:48.053Z</time>
      </trkpt>
      <trkpt lat="36.902507" lon="-3.537904">
        <ele>597.633544</ele>
        <time>2023-10-08T07:01:55.051Z</time>
      </trkpt>
      <trkpt lat="36.902455" lon="-3.537802">
        <ele>598.675668</ele>
        <time>2023-10-08T07:02:10.054Z</time>
      </trkpt>
      <trkpt lat="36.902385" lon="-3.537723">
        <ele>599.691508</ele>
        <time>2023-10-08T07:02:20.080Z</time>
      </trkpt>
      <trkpt lat="36.902292" lon="-3.537737">
        <ele>600.700670</ele>
        <time>2023-10-08T07:02:32.077Z</time>
      </trkpt>
      <trkpt lat="36.902193" lon="-3.537762">
        <ele>601.788768</ele>
        <time>2023-10-08T07:02:39.058Z</time>
      </trkpt>
      <trkpt lat="36.902097" lon="-3.537776">
        <ele>602.830026</ele>
        <time>2023-10-08T07:02:47.052Z</time>
      </trkpt>
      <trkpt lat="36.902000" lon="-3.537774">
        <ele>603.875191</ele>
        <time>2023-10-08T07:02:55.089Z</time>
      </trkpt>
      <trkpt lat="36.901914" lon="-3.537726">
        <ele>604.889801</ele>
        <time>2023-10-08T07:03:04.060Z</time>
      </trkpt>
      <trkpt lat="36.901822" lon="-3.537745">
        <ele>605.894381</ele>
        <time>2023-10-08T07:03:14.052Z</time>
      </trkpt>
      <trkpt lat="36.901746" lon="-3.537823">
        <ele>606.953608</ele>
        <time>2023-10-08T07:03:24.053Z</time>
      </trkpt>
      <trkpt lat="36.901660" lon="-3.537790">
        <ele>607.922760</ele>
        <time>2023-10-08T07:03:31.086Z</time>
      </trkpt>
      <trkpt lat="36.901591" lon="-3.537715">
        <ele>608.907690</ele>
        <time>2023-10-08T07:03:38.056Z</time>
      </trkpt>
      <trkpt lat="36.901532" lon="-3.537615">
        <ele>609.978316</ele>
        <time>2023-10-08T07:03:46.058Z</time>
      </trkpt>
      <trkpt lat="36.901476" lon="-3.537511">
        <ele>610.579904</ele>
        <time>2023-10-08T07:03:54.051Z</time>
      </trkpt>
      <trkpt lat="36.901411" lon="-3.537415">
        <ele>611.126626</ele>
        <time>2023-10-08T07:04:03.050Z</time>
      </trkpt>
      <trkpt lat="36.901335" lon="-3.537335">
        <ele>611.666557</ele>
        <time>2023-10-08T07:04:11.054Z</time>
      </trkpt>
      <trkpt lat="36.901247" lon="-3.537280">
        <ele>612.201260</ele>
        <time>2023-10-08T07:04:19.055Z</time>
      </trkpt>
      <trkpt lat="36.901172" lon="-3.537213">
        <ele>612.702226</ele>
        <time>2023-10-08T07:04:28.058Z</time>
      </trkpt>
      <trkpt lat="36.901095" lon="-3.537124">
        <ele>613.272120</ele>
        <time>2023-10-08T07:04:35.052Z</time>
      </trkpt>
      <trkpt lat="36.901018" lon="-3.537051">
        <ele>613.797301</ele>
        <time>2023-10-08T07:04:42.051Z</time>
      </trkpt>
      <trkpt lat="36.900931" lon="-3.536995">
        <ele>614.329123</ele>
        <time>2023-10-08T07:04:52.083Z</time>
      </trkpt>
      <trkpt lat="36.900852" lon="-3.536920">
        <ele>614.868219</ele>
        <time>2023-10-08T07:05:00.055Z</time>
      </trkpt>
      <trkpt lat="36.900783" lon="-3.536826">
        <ele>615.422802</ele>
        <time>2023-10-08T07:05:07.053Z</time>
      </trkpt>
      <trkpt lat="36.900727" lon="-3.536729">
        <ele>615.942786</ele>
        <time>2023-10-08T07:05:14.052Z</time>
      </trkpt>
      <trkpt lat="36.900644" lon="-3.536680">
        <ele>616.441647</ele>
        <time>2023-10-08T07:05:23.058Z</time>
      </trkpt>
      <trkpt lat="36.900558" lon="-3.536632">
        <ele>616.953514</ele>
        <time>2023-10-08T07:05:33.050Z</time>
      </trkpt>
      <trkpt lat="36.900468" lon="-3.536660">
        <ele>617.457588</ele>
        <time>2023-10-08T07:05:41.082Z</time>
      </trkpt>
      <trkpt lat="36.900444" lon="-3.536777">
        <ele>617.982577</ele>
        <time>2023-10-08T07:05:50.055Z</time>
      </trkpt>
      <trkpt lat="36.900415" lon="-3.536887">
        <ele>618.485990</ele>
        <time>2023-10-08T07:05:59.053Z</time>
      </trkpt>
      <trkpt lat="36.900451" lon="-3.537069">
        <ele>619.300869</ele>
        <time>2023-10-08T07:07:19.054Z</time>
      </trkpt>
      <trkpt lat="36.900448" lon="-3.537193">
        <ele>619.840066</ele>
        <time>2023-10-08T07:07:29.077Z</time>
      </trkpt>
      <trkpt lat="36.900471" lon="-3.537391">
        <ele>621.803878</ele>
        <time>2023-10-08T07:08:02.052Z</time>
      </trkpt>
      <trkpt lat="36.900525" lon="-3.537482">
        <ele>622.937078</ele>
        <time>2023-10-08T07:08:36.053Z</time>
      </trkpt>
      <trkpt lat="36.900604" lon="-3.537550">
        <ele>624.136410</ele>
        <time>2023-10-08T07:08:45.077Z</time>
      </trkpt>
      <trkpt lat="36.900675" lon="-3.537627">
        <ele>625.311673</ele>
        <time>2023-10-08T07:08:53.052Z</time>
      </trkpt>
      <trkpt lat="36.900623" lon="-3.537729">
        <ele>626.521340</ele>
        <time>2023-10-08T07:09:10.054Z</time>
      </trkpt>
      <trkpt lat="36.900535" lon="-3.537775">
        <ele>627.714080</ele>
        <time>2023-10-08T07:09:19.053Z</time>
      </trkpt>
      <trkpt lat="36.900569" lon="-3.537881">
        <ele>628.856193</ele>
        <time>2023-10-08T07:09:37.050Z</time>
      </trkpt>
      <trkpt lat="36.900663" lon="-3.537916">
        <ele>630.082690</ele>
        <time>2023-10-08T07:09:45.060Z</time>
      </trkpt>
      <trkpt lat="36.900754" lon="-3.537956">
        <ele>631.288925</ele>
        <time>2023-10-08T07:09:54.054Z</time>
      </trkpt>
      <trkpt lat="36.900798" lon="-3.538058">
        <ele>632.447886</ele>
        <time>2023-10-08T07:10:06.051Z</time>
      </trkpt>
      <trkpt lat="36.900795" lon="-3.538177">
        <ele>633.638497</ele>
        <time>2023-10-08T07:11:48.110Z</time>
      </trkpt>
      <trkpt lat="36.900825" lon="-3.538286">
        <ele>634.791269</ele>
        <time>2023-10-08T07:11:59.050Z</time>
      </trkpt>
      <trkpt lat="36.900888" lon="-3.538379">
        <ele>636.010124</ele>
        <time>2023-10-08T07:12:07.076Z</time>
      </trkpt>
      <trkpt lat="36.900934" lon="-3.538488">
        <ele>637.242617</ele>
        <time>2023-10-08T07:12:17.066Z</time>
      </trkpt>
      <trkpt lat="36.900951" lon="-3.538599">
        <ele>638.372808</ele>
        <time>2023-10-08T07:12:33.080Z</time>
      </trkpt>
      <trkpt lat="36.900989" lon="-3.538703">
        <ele>639.516244</ele>
        <time>2023-10-08T07:12:43.088Z</time>
      </trkpt>
      <trkpt lat="36.901017" lon="-3.538817">
        <ele>640.708821</ele>
        <time>2023-10-08T07:12:54.085Z</time>
      </trkpt>
      <trkpt lat="36.901035" lon="-3.538940">
        <ele>641.959264</ele>
        <time>2023-10-08T07:13:05.060Z</time>
      </trkpt>
      <trkpt lat="36.901069" lon="-3.539050">
        <ele>642.408212</ele>
        <time>2023-10-08T07:13:14.047Z</time>
      </trkpt>
      <trkpt lat="36.901099" lon="-3.539172">
        <ele>642.485655</ele>
        <time>2023-10-08T07:13:23.050Z</time>
      </trkpt>
      <trkpt lat="36.901139" lon="-3.539290">
        <ele>642.563418</ele>
        <time>2023-10-08T07:13:29.051Z</time>
      </trkpt>
      <trkpt lat="36.901185" lon="-3.539394">
        <ele>642.635528</ele>
        <time>2023-10-08T07:13:36.051Z</time>
      </trkpt>
      <trkpt lat="36.901220" lon="-3.539514">
        <ele>642.713029</ele>
        <time>2023-10-08T07:13:45.057Z</time>
      </trkpt>
      <trkpt lat="36.901246" lon="-3.539627">
        <ele>642.784372</ele>
        <time>2023-10-08T07:13:52.050Z</time>
      </trkpt>
      <trkpt lat="36.901273" lon="-3.539748">
        <ele>642.860592</ele>
        <time>2023-10-08T07:13:59.077Z</time>
      </trkpt>
      <trkpt lat="36.901307" lon="-3.539856">
        <ele>642.931015</ele>
        <time>2023-10-08T07:14:08.048Z</time>
      </trkpt>
      <trkpt lat="36.901342" lon="-3.539969">
        <ele>643.004540</ele>
        <time>2023-10-08T07:14:17.081Z</time>
      </trkpt>
      <trkpt lat="36.901369" lon="-3.540080">
        <ele>643.074935</ele>
        <time>2023-10-08T07:14:24.050Z</time>
      </trkpt>
      <trkpt lat="36.901387" lon="-3.540198">
        <ele>643.147821</ele>
        <time>2023-10-08T07:14:32.052Z</time>
      </trkpt>
      <trkpt lat="36.901365" lon="-3.540309">
        <ele>643.217207</ele>
        <time>2023-10-08T07:14:40.077Z</time>
      </trkpt>
      <trkpt lat="36.901324" lon="-3.540415">
        <ele>643.288650</ele>
        <time>2023-10-08T07:14:49.052Z</time>
      </trkpt>
      <trkpt lat="36.901278" lon="-3.540514">
        <ele>643.358121</ele>
        <time>2023-10-08T07:14:58.074Z</time>
      </trkpt>
      <trkpt lat="36.901252" lon="-3.540627">
        <ele>643.429465</ele>
        <time>2023-10-08T07:15:06.053Z</time>
      </trkpt>
      <trkpt lat="36.901252" lon="-3.540746">
        <ele>643.501667</ele>
        <time>2023-10-08T07:15:16.054Z</time>
      </trkpt>
      <trkpt lat="36.901272" lon="-3.540866">
        <ele>643.576040</ele>
        <time>2023-10-08T07:15:48.050Z</time>
      </trkpt>
      <trkpt lat="36.901245" lon="-3.540985">
        <ele>643.651092</ele>
        <time>2023-10-08T07:15:57.051Z</time>
      </trkpt>
      <trkpt lat="36.901218" lon="-3.541095">
        <ele>643.720907</ele>
        <time>2023-10-08T07:16:03.051Z</time>
      </trkpt>
      <trkpt lat="36.901223" lon="-3.541219">
        <ele>642.372175</ele>
        <time>2023-10-08T07:16:11.082Z</time>
      </trkpt>
      <trkpt lat="36.901210" lon="-3.541347">
        <ele>640.869228</ele>
        <time>2023-10-08T07:16:19.076Z</time>
      </trkpt>
      <trkpt lat="36.901224" lon="-3.541466">
        <ele>639.468171</ele>
        <time>2023-10-08T07:16:26.055Z</time>
      </trkpt>
      <trkpt lat="36.901188" lon="-3.541580">
        <ele>638.040486</ele>
        <time>2023-10-08T07:16:36.050Z</time>
      </trkpt>
      <trkpt lat="36.901136" lon="-3.541681">
        <ele>636.641272</ele>
        <time>2023-10-08T07:16:46.054Z</time>
      </trkpt>
      <trkpt lat="36.901091" lon="-3.541781">
        <ele>635.304685</ele>
        <time>2023-10-08T07:16:55.049Z</time>
      </trkpt>
      <trkpt lat="36.901030" lon="-3.541864">
        <ele>633.991593</ele>
        <time>2023-10-08T07:17:04.052Z</time>
      </trkpt>
      <trkpt lat="36.900988" lon="-3.541964">
        <ele>632.675884</ele>
        <time>2023-10-08T07:17:14.052Z</time>
      </trkpt>
      <trkpt lat="36.900923" lon="-3.542045">
        <ele>631.339229</ele>
        <time>2023-10-08T07:17:24.052Z</time>
      </trkpt>
      <trkpt lat="36.900862" lon="-3.542141">
        <ele>629.910963</ele>
        <time>2023-10-08T07:17:33.051Z</time>
      </trkpt>
      <trkpt lat="36.900787" lon="-3.542220">
        <ele>628.482580</ele>
        <time>2023-10-08T07:17:43.056Z</time>
      </trkpt>
      <trkpt lat="36.900737" lon="-3.542320">
        <ele>627.108805</ele>
        <time>2023-10-08T07:17:52.054Z</time>
      </trkpt>
      <trkpt lat="36.900649" lon="-3.542272">
        <ele>625.710343</ele>
        <time>2023-10-08T07:18:02.054Z</time>
      </trkpt>
      <trkpt lat="36.900658" lon="-3.542141">
        <ele>624.178796</ele>
        <time>2023-10-08T07:18:09.051Z</time>
      </trkpt>
      <trkpt lat="36.900695" lon="-3.542029">
        <ele>622.767248</ele>
        <time>2023-10-08T07:18:15.050Z</time>
      </trkpt>
      <trkpt lat="36.900739" lon="-3.541927">
        <ele>621.417281</ele>
        <time>2023-10-08T07:18:23.053Z</time>
      </trkpt>
      <trkpt lat="36.900690" lon="-3.541823">
        <ele>620.011232</ele>
        <time>2023-10-08T07:18:31.057Z</time>
      </trkpt>
      <trkpt lat="36.900603" lon="-3.541904">
        <ele>618.431306</ele>
        <time>2023-10-08T07:18:37.051Z</time>
      </trkpt>
      <trkpt lat="36.900589" lon="-3.542031">
        <ele>617.082187</ele>
        <time>2023-10-08T07:18:44.053Z</time>
      </trkpt>
      <trkpt lat="36.900564" lon="-3.542147">
        <ele>616.025795</ele>
        <time>2023-10-08T07:18:52.052Z</time>
      </trkpt>
      <trkpt lat="36.900530" lon="-3.542254">
        <ele>615.013377</ele>
        <time>2023-10-08T07:19:07.054Z</time>
      </trkpt>
      <trkpt lat="36.900437" lon="-3.542271">
        <ele>613.979901</ele>
        <time>2023-10-08T07:19:18.052Z</time>
      </trkpt>
      <trkpt lat="36.900352" lon="-3.542326">
        <ele>612.927549</ele>
        <time>2023-10-08T07:19:27.052Z</time>
      </trkpt>
      <trkpt lat="36.900256" lon="-3.542378">
        <ele>611.777179</ele>
        <time>2023-10-08T07:19:37.050Z</time>
      </trkpt>
      <trkpt lat="36.900167" lon="-3.542416">
        <ele>610.743082</ele>
        <time>2023-10-08T07:19:46.049Z</time>
      </trkpt>
      <trkpt lat="36.900073" lon="-3.542458">
        <ele>609.645481</ele>
        <time>2023-10-08T07:19:54.049Z</time>
      </trkpt>
      <trkpt lat="36.899982" lon="-3.542483">
        <ele>608.621002</ele>
        <time>2023-10-08T07:20:01.052Z</time>
      </trkpt>
      <trkpt lat="36.899889" lon="-3.542479">
        <ele>607.597789</ele>
        <time>2023-10-08T07:20:11.053Z</time>
      </trkpt>
      <trkpt lat="36.899830" lon="-3.542573">
        <ele>606.547039</ele>
        <time>2023-10-08T07:20:45.053Z</time>
      </trkpt>
      <trkpt lat="36.899673" lon="-3.542785">
        <ele>604.006306</ele>
        <time>2023-10-08T07:21:35.053Z</time>
      </trkpt>
      <trkpt lat="36.899613" lon="-3.542885">
        <ele>602.907002</ele>
        <time>2023-10-08T07:21:44.051Z</time>
      </trkpt>
      <trkpt lat="36.899530" lon="-3.542933">
        <ele>601.901479</ele>
        <time>2023-10-08T07:21:53.056Z</time>
      </trkpt>
      <trkpt lat="36.899429" lon="-3.542937">
        <ele>600.790347</ele>
        <time>2023-10-08T07:21:59.053Z</time>
      </trkpt>
      <trkpt lat="36.899338" lon="-3.542902">
        <ele>599.743471</ele>
        <time>2023-10-08T07:22:04.051Z</time>
      </trkpt>
      <trkpt lat="36.899270" lon="-3.542823">
        <ele>598.722865</ele>
        <time>2023-10-08T07:22:10.049Z</time>
      </trkpt>
      <trkpt lat="36.899181" lon="-3.542791">
        <ele>597.691766</ele>
        <time>2023-10-08T07:22:17.051Z</time>
      </trkpt>
      <trkpt lat="36.899089" lon="-3.542794">
        <ele>596.386242</ele>
        <time>2023-10-08T07:22:25.051Z</time>
      </trkpt>
      <trkpt lat="36.898951" lon="-3.542738">
        <ele>594.328124</ele>
        <time>2023-10-08T07:23:04.058Z</time>
      </trkpt>
      <trkpt lat="36.898857" lon="-3.542725">
        <ele>592.986543</ele>
        <time>2023-10-08T07:23:13.056Z</time>
      </trkpt>
      <trkpt lat="36.898764" lon="-3.542734">
        <ele>591.663332</ele>
        <time>2023-10-08T07:23:23.050Z</time>
      </trkpt>
      <trkpt lat="36.898696" lon="-3.542813">
        <ele>590.346645</ele>
        <time>2023-10-08T07:23:32.080Z</time>
      </trkpt>
      <trkpt lat="36.898643" lon="-3.542906">
        <ele>589.051145</ele>
        <time>2023-10-08T07:23:40.061Z</time>
      </trkpt>
      <trkpt lat="36.898603" lon="-3.543010">
        <ele>587.741983</ele>
        <time>2023-10-08T07:23:51.062Z</time>
      </trkpt>
      <trkpt lat="36.898570" lon="-3.543123">
        <ele>586.377280</ele>
        <time>2023-10-08T07:23:59.050Z</time>
      </trkpt>
      <trkpt lat="36.898535" lon="-3.543234">
        <ele>585.023719</ele>
        <time>2023-10-08T07:24:09.051Z</time>
      </trkpt>
      <trkpt lat="36.898491" lon="-3.543342">
        <ele>583.648708</ele>
        <time>2023-10-08T07:24:17.049Z</time>
      </trkpt>
      <trkpt lat="36.898492" lon="-3.543459">
        <ele>582.321352</ele>
        <time>2023-10-08T07:24:22.054Z</time>
      </trkpt>
      <trkpt lat="36.898520" lon="-3.543574">
        <ele>580.957635</ele>
        <time>2023-10-08T07:24:29.046Z</time>
      </trkpt>
      <trkpt lat="36.898556" lon="-3.543684">
        <ele>579.609311</ele>
        <time>2023-10-08T07:24:37.055Z</time>
      </trkpt>
      <trkpt lat="36.898541" lon="-3.543802">
        <ele>578.253882</ele>
        <time>2023-10-08T07:24:46.051Z</time>
      </trkpt>
      <trkpt lat="36.898450" lon="-3.543817">
        <ele>576.951820</ele>
        <time>2023-10-08T07:24:54.074Z</time>
      </trkpt>
      <trkpt lat="36.898415" lon="-3.543706">
        <ele>575.598257</ele>
        <time>2023-10-08T07:25:11.054Z</time>
      </trkpt>
      <trkpt lat="36.898404" lon="-3.543589">
        <ele>574.261835</ele>
        <time>2023-10-08T07:25:17.092Z</time>
      </trkpt>
      <trkpt lat="36.898385" lon="-3.543462">
        <ele>572.796116</ele>
        <time>2023-10-08T07:25:24.051Z</time>
      </trkpt>
      <trkpt lat="36.898364" lon="-3.543345">
        <ele>571.655460</ele>
        <time>2023-10-08T07:25:31.071Z</time>
      </trkpt>
      <trkpt lat="36.898355" lon="-3.543228">
        <ele>570.689043</ele>
        <time>2023-10-08T07:25:39.051Z</time>
      </trkpt>
      <trkpt lat="36.898340" lon="-3.543107">
        <ele>569.682296</ele>
        <time>2023-10-08T07:25:46.049Z</time>
      </trkpt>
      <trkpt lat="36.898310" lon="-3.542990">
        <ele>568.672080</ele>
        <time>2023-10-08T07:25:53.049Z</time>
      </trkpt>
      <trkpt lat="36.898271" lon="-3.542880">
        <ele>567.682757</ele>
        <time>2023-10-08T07:26:00.051Z</time>
      </trkpt>
      <trkpt lat="36.898237" lon="-3.542766">
        <ele>566.682382</ele>
        <time>2023-10-08T07:26:07.048Z</time>
      </trkpt>
      <trkpt lat="36.898209" lon="-3.542655">
        <ele>565.725409</ele>
        <time>2023-10-08T07:26:13.090Z</time>
      </trkpt>
      <trkpt lat="36.898179" lon="-3.542549">
        <ele>564.800903</ele>
        <time>2023-10-08T07:26:19.050Z</time>
      </trkpt>
      <trkpt lat="36.898150" lon="-3.542425">
        <ele>563.738666</ele>
        <time>2023-10-08T07:26:26.077Z</time>
      </trkpt>
      <trkpt lat="36.898129" lon="-3.542313">
        <ele>562.792824</ele>
        <time>2023-10-08T07:26:34.052Z</time>
      </trkpt>
      <trkpt lat="36.898099" lon="-3.542203">
        <ele>561.837250</ele>
        <time>2023-10-08T07:26:42.049Z</time>
      </trkpt>
      <trkpt lat="36.898128" lon="-3.542091">
        <ele>560.869314</ele>
        <time>2023-10-08T07:26:50.080Z</time>
      </trkpt>
      <trkpt lat="36.898186" lon="-3.541998">
        <ele>559.899630</ele>
        <time>2023-10-08T07:27:00.051Z</time>
      </trkpt>
      <trkpt lat="36.898241" lon="-3.541905">
        <ele>558.948604</ele>
        <time>2023-10-08T07:27:09.054Z</time>
      </trkpt>
      <trkpt lat="36.898267" lon="-3.541785">
        <ele>557.926389</ele>
        <time>2023-10-08T07:27:18.051Z</time>
      </trkpt>
      <trkpt lat="36.898306" lon="-3.541681">
        <ele>556.981952</ele>
        <time>2023-10-08T07:27:28.049Z</time>
      </trkpt>
      <trkpt lat="36.898315" lon="-3.541562">
        <ele>555.999165</ele>
        <time>2023-10-08T07:27:37.048Z</time>
      </trkpt>
      <trkpt lat="36.898280" lon="-3.541452">
        <ele>555.025783</ele>
        <time>2023-10-08T07:27:48.085Z</time>
      </trkpt>
      <trkpt lat="36.898192" lon="-3.541413">
        <ele>554.065881</ele>
        <time>2023-10-08T07:27:56.048Z</time>
      </trkpt>
      <trkpt lat="36.898120" lon="-3.541342">
        <ele>552.662918</ele>
        <time>2023-10-08T07:28:07.051Z</time>
      </trkpt>
      <trkpt lat="36.898095" lon="-3.541219">
        <ele>550.842678</ele>
        <time>2023-10-08T07:28:16.049Z</time>
      </trkpt>
      <trkpt lat="36.898120" lon="-3.541106">
        <ele>549.161074</ele>
        <time>2023-10-08T07:28:24.050Z</time>
      </trkpt>
      <trkpt lat="36.898148" lon="-3.540992">
        <ele>547.450627</ele>
        <time>2023-10-08T07:28:33.050Z</time>
      </trkpt>
      <trkpt lat="36.898171" lon="-3.540876">
        <ele>545.736500</ele>
        <time>2023-10-08T07:28:40.049Z</time>
      </trkpt>
      <trkpt lat="36.898214" lon="-3.540767">
        <ele>543.993276</ele>
        <time>2023-10-08T07:28:52.049Z</time>
      </trkpt>
      <trkpt lat="36.898220" lon="-3.540651">
        <ele>542.326049</ele>
        <time>2023-10-08T07:28:59.077Z</time>
      </trkpt>
      <trkpt lat="36.898160" lon="-3.540561">
        <ele>540.645495</ele>
        <time>2023-10-08T07:29:07.048Z</time>
      </trkpt>
      <trkpt lat="36.898093" lon="-3.540654">
        <ele>538.850178</ele>
        <time>2023-10-08T07:29:24.048Z</time>
      </trkpt>
      <trkpt lat="36.898099" lon="-3.540768">
        <ele>537.211572</ele>
        <time>2023-10-08T07:29:30.047Z</time>
      </trkpt>
      <trkpt lat="36.898050" lon="-3.540870">
        <ele>535.504951</ele>
        <time>2023-10-08T07:29:37.049Z</time>
      </trkpt>
      <trkpt lat="36.897981" lon="-3.540956">
        <ele>533.757696</ele>
        <time>2023-10-08T07:29:44.052Z</time>
      </trkpt>
      <trkpt lat="36.897888" lon="-3.540977">
        <ele>532.062764</ele>
        <time>2023-10-08T07:29:52.049Z</time>
      </trkpt>
      <trkpt lat="36.897801" lon="-3.540934">
        <ele>530.384955</ele>
        <time>2023-10-08T07:30:01.054Z</time>
      </trkpt>
      <trkpt lat="36.897714" lon="-3.540895">
        <ele>528.727376</ele>
        <time>2023-10-08T07:30:09.054Z</time>
      </trkpt>
      <trkpt lat="36.897615" lon="-3.540873">
        <ele>526.923991</ele>
        <time>2023-10-08T07:30:17.050Z</time>
      </trkpt>
      <trkpt lat="36.897523" lon="-3.540857">
        <ele>525.258089</ele>
        <time>2023-10-08T07:30:25.082Z</time>
      </trkpt>
      <trkpt lat="36.897469" lon="-3.540955">
        <ele>523.551140</ele>
        <time>2023-10-08T07:30:54.050Z</time>
      </trkpt>
      <trkpt lat="36.897458" lon="-3.541067">
        <ele>521.932675</ele>
        <time>2023-10-08T07:31:05.049Z</time>
      </trkpt>
      <trkpt lat="36.897408" lon="-3.540969">
        <ele>521.292207</ele>
        <time>2023-10-08T07:31:19.087Z</time>
      </trkpt>
      <trkpt lat="36.897318" lon="-3.540984">
        <ele>521.037384</ele>
        <time>2023-10-08T07:31:37.049Z</time>
      </trkpt>
      <trkpt lat="36.897244" lon="-3.541053">
        <ele>520.778316</ele>
        <time>2023-10-08T07:31:51.050Z</time>
      </trkpt>
      <trkpt lat="36.897184" lon="-3.541150">
        <ele>520.503082</ele>
        <time>2023-10-08T07:32:06.050Z</time>
      </trkpt>
      <trkpt lat="36.897094" lon="-3.541136">
        <ele>520.248546</ele>
        <time>2023-10-08T07:32:22.076Z</time>
      </trkpt>
      <trkpt lat="36.897009" lon="-3.541177">
        <ele>519.992856</ele>
        <time>2023-10-08T07:32:39.051Z</time>
      </trkpt>
      <trkpt lat="36.896866" lon="-3.541094">
        <ele>519.550392</ele>
        <time>2023-10-08T07:34:10.055Z</time>
      </trkpt>
      <trkpt lat="36.896854" lon="-3.540977">
        <ele>519.285641</ele>
        <time>2023-10-08T07:34:35.049Z</time>
      </trkpt>
      <trkpt lat="36.896837" lon="-3.540862">
        <ele>519.023157</ele>
        <time>2023-10-08T07:34:46.058Z</time>
      </trkpt>
      <trkpt lat="36.896754" lon="-3.540653">
        <ele>518.499414</ele>
        <time>2023-10-08T07:36:51.084Z</time>
      </trkpt>
      <trkpt lat="36.896800" lon="-3.540554">
        <ele>518.242431</ele>
        <time>2023-10-08T07:37:07.049Z</time>
      </trkpt>
      <trkpt lat="36.896855" lon="-3.540454">
        <ele>517.970030</ele>
        <time>2023-10-08T07:37:44.050Z</time>
      </trkpt>
      <trkpt lat="36.896871" lon="-3.540335">
        <ele>517.699192</ele>
        <time>2023-10-08T07:38:05.049Z</time>
      </trkpt>
      <trkpt lat="36.896858" lon="-3.540121">
        <ele>517.217497</ele>
        <time>2023-10-08T07:39:52.055Z</time>
      </trkpt>
      <trkpt lat="36.896992" lon="-3.539897">
        <ele>516.589646</ele>
        <time>2023-10-08T07:44:46.061Z</time>
      </trkpt>
      <trkpt lat="36.896865" lon="-3.539776">
        <ele>517.314466</ele>
        <time>2023-10-08T07:46:06.075Z</time>
      </trkpt>
      <trkpt lat="36.896777" lon="-3.539743">
        <ele>518.088178</ele>
        <time>2023-10-08T07:46:22.052Z</time>
      </trkpt>
      <trkpt lat="36.896682" lon="-3.539696">
        <ele>518.948576</ele>
        <time>2023-10-08T07:46:31.055Z</time>
      </trkpt>
      <trkpt lat="36.896600" lon="-3.539649">
        <ele>519.708240</ele>
        <time>2023-10-08T07:46:45.062Z</time>
      </trkpt>
      <trkpt lat="36.896414" lon="-3.539643">
        <ele>521.275183</ele>
        <time>2023-10-08T07:47:30.068Z</time>
      </trkpt>
      <trkpt lat="36.896333" lon="-3.539698">
        <ele>522.051420</ele>
        <time>2023-10-08T07:47:39.049Z</time>
      </trkpt>
      <trkpt lat="36.896410" lon="-3.539614">
        <ele>522.911981</ele>
        <time>2023-10-08T07:51:49.047Z</time>
      </trkpt>
      <trkpt lat="36.896335" lon="-3.539548">
        <ele>523.684336</ele>
        <time>2023-10-08T07:52:00.059Z</time>
      </trkpt>
      <trkpt lat="36.896265" lon="-3.539469">
        <ele>524.478450</ele>
        <time>2023-10-08T07:52:23.080Z</time>
      </trkpt>
      <trkpt lat="36.896285" lon="-3.539358">
        <ele>525.244771</ele>
        <time>2023-10-08T07:52:47.059Z</time>
      </trkpt>
      <trkpt lat="36.896230" lon="-3.539268">
        <ele>526.007633</ele>
        <time>2023-10-08T07:53:33.085Z</time>
      </trkpt>
      <trkpt lat="36.896301" lon="-3.539197">
        <ele>526.773261</ele>
        <time>2023-10-08T07:53:45.083Z</time>
      </trkpt>
      <trkpt lat="36.896350" lon="-3.539101">
        <ele>527.540283</ele>
        <time>2023-10-08T07:53:53.096Z</time>
      </trkpt>
      <trkpt lat="36.896360" lon="-3.538989">
        <ele>528.299286</ele>
        <time>2023-10-08T07:54:05.058Z</time>
      </trkpt>
      <trkpt lat="36.896367" lon="-3.538877">
        <ele>529.055902</ele>
        <time>2023-10-08T07:54:20.059Z</time>
      </trkpt>
      <trkpt lat="36.896408" lon="-3.538765">
        <ele>529.885489</ele>
        <time>2023-10-08T07:54:33.052Z</time>
      </trkpt>
      <trkpt lat="36.896434" lon="-3.538655">
        <ele>530.658015</ele>
        <time>2023-10-08T07:54:45.077Z</time>
      </trkpt>
      <trkpt lat="36.896426" lon="-3.538537">
        <ele>531.455590</ele>
        <time>2023-10-08T07:54:53.093Z</time>
      </trkpt>
      <trkpt lat="36.896417" lon="-3.538421">
        <ele>531.041769</ele>
        <time>2023-10-08T07:55:01.051Z</time>
      </trkpt>
      <trkpt lat="36.896466" lon="-3.538324">
        <ele>530.407399</ele>
        <time>2023-10-08T07:55:16.061Z</time>
      </trkpt>
      <trkpt lat="36.896430" lon="-3.538217">
        <ele>529.765549</ele>
        <time>2023-10-08T07:55:40.059Z</time>
      </trkpt>
      <trkpt lat="36.896300" lon="-3.538104">
        <ele>528.670913</ele>
        <time>2023-10-08T07:57:34.058Z</time>
      </trkpt>
      <trkpt lat="36.896238" lon="-3.538011">
        <ele>528.001458</ele>
        <time>2023-10-08T07:57:58.051Z</time>
      </trkpt>
      <trkpt lat="36.896154" lon="-3.537831">
        <ele>526.849142</ele>
        <time>2023-10-08T07:58:31.055Z</time>
      </trkpt>
      <trkpt lat="36.896173" lon="-3.537635">
        <ele>525.757482</ele>
        <time>2023-10-08T07:59:29.054Z</time>
      </trkpt>
      <trkpt lat="36.896177" lon="-3.537264">
        <ele>523.705955</ele>
        <time>2023-10-08T08:00:29.064Z</time>
      </trkpt>
      <trkpt lat="36.896197" lon="-3.537148">
        <ele>523.049829</ele>
        <time>2023-10-08T08:00:44.069Z</time>
      </trkpt>
      <trkpt lat="36.896258" lon="-3.537047">
        <ele>522.350016</ele>
        <time>2023-10-08T08:00:54.046Z</time>
      </trkpt>
      <trkpt lat="36.896283" lon="-3.536938">
        <ele>521.723036</ele>
        <time>2023-10-08T08:01:06.080Z</time>
      </trkpt>
      <trkpt lat="36.896251" lon="-3.536822">
        <ele>521.044561</ele>
        <time>2023-10-08T08:03:02.077Z</time>
      </trkpt>
      <trkpt lat="36.896277" lon="-3.536712">
        <ele>520.410338</ele>
        <time>2023-10-08T08:03:17.063Z</time>
      </trkpt>
      <trkpt lat="36.896276" lon="-3.536599">
        <ele>519.785499</ele>
        <time>2023-10-08T08:03:29.081Z</time>
      </trkpt>
      <trkpt lat="36.896292" lon="-3.536477">
        <ele>519.083275</ele>
        <time>2023-10-08T08:03:37.095Z</time>
      </trkpt>
      <trkpt lat="36.896314" lon="-3.536590">
        <ele>518.171598</ele>
        <time>2023-10-08T08:04:25.075Z</time>
      </trkpt>
      <trkpt lat="36.896309" lon="-3.536711">
        <ele>517.221815</ele>
        <time>2023-10-08T08:04:35.077Z</time>
      </trkpt>
      <trkpt lat="36.896342" lon="-3.536820">
        <ele>516.308187</ele>
        <time>2023-10-08T08:04:43.087Z</time>
      </trkpt>
      <trkpt lat="36.896362" lon="-3.536939">
        <ele>515.354971</ele>
        <time>2023-10-08T08:04:51.052Z</time>
      </trkpt>
      <trkpt lat="36.896372" lon="-3.537058">
        <ele>514.416996</ele>
        <time>2023-10-08T08:04:58.052Z</time>
      </trkpt>
      <trkpt lat="36.896398" lon="-3.536949">
        <ele>513.525350</ele>
        <time>2023-10-08T08:06:25.051Z</time>
      </trkpt>
      <trkpt lat="36.896423" lon="-3.536837">
        <ele>512.613826</ele>
        <time>2023-10-08T08:06:40.059Z</time>
      </trkpt>
      <trkpt lat="36.896443" lon="-3.536722">
        <ele>511.691274</ele>
        <time>2023-10-08T08:06:47.074Z</time>
      </trkpt>
      <trkpt lat="36.896521" lon="-3.536642">
        <ele>510.702418</ele>
        <time>2023-10-08T08:07:01.047Z</time>
      </trkpt>
      <trkpt lat="36.896613" lon="-3.536657">
        <ele>509.792989</ele>
        <time>2023-10-08T08:07:11.051Z</time>
      </trkpt>
      <trkpt lat="36.896650" lon="-3.536767">
        <ele>508.857536</ele>
        <time>2023-10-08T08:07:20.048Z</time>
      </trkpt>
      <trkpt lat="36.896610" lon="-3.536874">
        <ele>507.931652</ele>
        <time>2023-10-08T08:07:31.057Z</time>
      </trkpt>
      <trkpt lat="36.896576" lon="-3.536982">
        <ele>507.021809</ele>
        <time>2023-10-08T08:07:42.096Z</time>
      </trkpt>
      <trkpt lat="36.896556" lon="-3.537093">
        <ele>506.129873</ele>
        <time>2023-10-08T08:07:49.059Z</time>
      </trkpt>
      <trkpt lat="36.896555" lon="-3.537215">
        <ele>505.173469</ele>
        <time>2023-10-08T08:07:58.056Z</time>
      </trkpt>
      <trkpt lat="36.896551" lon="-3.537329">
        <ele>504.278968</ele>
        <time>2023-10-08T08:08:10.055Z</time>
      </trkpt>
      <trkpt lat="36.896631" lon="-3.537274">
        <ele>503.384090</ele>
        <time>2023-10-08T08:08:39.078Z</time>
      </trkpt>
      <trkpt lat="36.896714" lon="-3.537228">
        <ele>502.494184</ele>
        <time>2023-10-08T08:08:51.064Z</time>
      </trkpt>
      <trkpt lat="36.896817" lon="-3.537181">
        <ele>501.339433</ele>
        <time>2023-10-08T08:08:58.060Z</time>
      </trkpt>
      <trkpt lat="36.896890" lon="-3.537105">
        <ele>499.637191</ele>
        <time>2023-10-08T08:09:04.043Z</time>
      </trkpt>
      <trkpt lat="36.896985" lon="-3.537052">
        <ele>497.773008</ele>
        <time>2023-10-08T08:09:13.057Z</time>
      </trkpt>
      <trkpt lat="36.897071" lon="-3.536984">
        <ele>495.949600</ele>
        <time>2023-10-08T08:09:19.084Z</time>
      </trkpt>
      <trkpt lat="36.897133" lon="-3.536887">
        <ele>494.170027</ele>
        <time>2023-10-08T08:09:26.049Z</time>
      </trkpt>
      <trkpt lat="36.897117" lon="-3.536703">
        <ele>491.517557</ele>
        <time>2023-10-08T08:10:34.064Z</time>
      </trkpt>
      <trkpt lat="36.897116" lon="-3.536583">
        <ele>489.797728</ele>
        <time>2023-10-08T08:10:51.051Z</time>
      </trkpt>
      <trkpt lat="36.897138" lon="-3.536461">
        <ele>488.005433</ele>
        <time>2023-10-08T08:11:15.059Z</time>
      </trkpt>
      <trkpt lat="36.897157" lon="-3.536350">
        <ele>486.378648</ele>
        <time>2023-10-08T08:11:30.045Z</time>
      </trkpt>
      <trkpt lat="36.897146" lon="-3.536237">
        <ele>484.747278</ele>
        <time>2023-10-08T08:11:41.060Z</time>
      </trkpt>
      <trkpt lat="36.897138" lon="-3.536119">
        <ele>483.050140</ele>
        <time>2023-10-08T08:11:52.039Z</time>
      </trkpt>
      <trkpt lat="36.897267" lon="-3.536030">
        <ele>480.409901</ele>
        <time>2023-10-08T08:12:41.048Z</time>
      </trkpt>
      <trkpt lat="36.897363" lon="-3.536037">
        <ele>478.686630</ele>
        <time>2023-10-08T08:12:55.076Z</time>
      </trkpt>
      <trkpt lat="36.897417" lon="-3.535875">
        <ele>476.171392</ele>
        <time>2023-10-08T08:15:59.060Z</time>
      </trkpt>
      <trkpt lat="36.897392" lon="-3.535761">
        <ele>474.477337</ele>
        <time>2023-10-08T08:16:08.049Z</time>
      </trkpt>
      <trkpt lat="36.897348" lon="-3.535647">
        <ele>472.663270</ele>
        <time>2023-10-08T08:16:13.056Z</time>
      </trkpt>
      <trkpt lat="36.897304" lon="-3.535543">
        <ele>470.977117</ele>
        <time>2023-10-08T08:16:18.051Z</time>
      </trkpt>
      <trkpt lat="36.897399" lon="-3.535525">
        <ele>469.261732</ele>
        <time>2023-10-08T08:16:27.075Z</time>
      </trkpt>
      <trkpt lat="36.897478" lon="-3.535592">
        <ele>467.938856</ele>
        <time>2023-10-08T08:16:47.089Z</time>
      </trkpt>
      <trkpt lat="36.897551" lon="-3.535673">
        <ele>466.586324</ele>
        <time>2023-10-08T08:17:04.048Z</time>
      </trkpt>
      <trkpt lat="36.897620" lon="-3.535750">
        <ele>465.304674</ele>
        <time>2023-10-08T08:17:58.088Z</time>
      </trkpt>
      <trkpt lat="36.897691" lon="-3.535834">
        <ele>463.950116</ele>
        <time>2023-10-08T08:18:12.086Z</time>
      </trkpt>
      <trkpt lat="36.897784" lon="-3.535829">
        <ele>462.660088</ele>
        <time>2023-10-08T08:18:25.055Z</time>
      </trkpt>
      <trkpt lat="36.897858" lon="-3.535894">
        <ele>461.406834</ele>
        <time>2023-10-08T08:18:54.061Z</time>
      </trkpt>
      <trkpt lat="36.897836" lon="-3.535778">
        <ele>460.085581</ele>
        <time>2023-10-08T08:20:27.105Z</time>
      </trkpt>
      <trkpt lat="36.897823" lon="-3.535665">
        <ele>458.820342</ele>
        <time>2023-10-08T08:20:36.083Z</time>
      </trkpt>
      <trkpt lat="36.897804" lon="-3.535555">
        <ele>457.573131</ele>
        <time>2023-10-08T08:20:53.050Z</time>
      </trkpt>
      <trkpt lat="36.897778" lon="-3.535436">
        <ele>456.205952</ele>
        <time>2023-10-08T08:21:08.057Z</time>
      </trkpt>
      <trkpt lat="36.897758" lon="-3.535326">
        <ele>454.955741</ele>
        <time>2023-10-08T08:21:17.055Z</time>
      </trkpt>
      <trkpt lat="36.897744" lon="-3.535210">
        <ele>453.655587</ele>
        <time>2023-10-08T08:21:35.059Z</time>
      </trkpt>
      <trkpt lat="36.897801" lon="-3.534961">
        <ele>450.785156</ele>
        <time>2023-10-08T08:22:59.082Z</time>
      </trkpt>
      <trkpt lat="36.897824" lon="-3.534844">
        <ele>449.449877</ele>
        <time>2023-10-08T08:23:06.051Z</time>
      </trkpt>
      <trkpt lat="36.897850" lon="-3.534727">
        <ele>448.104067</ele>
        <time>2023-10-08T08:23:14.082Z</time>
      </trkpt>
      <trkpt lat="36.897894" lon="-3.534626">
        <ele>446.829401</ele>
        <time>2023-10-08T08:23:39.052Z</time>
      </trkpt>
      <trkpt lat="36.897927" lon="-3.534517">
        <ele>445.537716</ele>
        <time>2023-10-08T08:23:50.040Z</time>
      </trkpt>
      <trkpt lat="36.897969" lon="-3.534415">
        <ele>444.286556</ele>
        <time>2023-10-08T08:23:59.039Z</time>
      </trkpt>
      <trkpt lat="36.898003" lon="-3.534305">
        <ele>443.270936</ele>
        <time>2023-10-08T08:24:08.042Z</time>
      </trkpt>
      <trkpt lat="36.898031" lon="-3.534190">
        <ele>442.235668</ele>
        <time>2023-10-08T08:24:18.039Z</time>
      </trkpt>
      <trkpt lat="36.898066" lon="-3.534077">
        <ele>441.192067</ele>
        <time>2023-10-08T08:24:25.039Z</time>
      </trkpt>
      <trkpt lat="36.898113" lon="-3.533971">
        <ele>440.148266</ele>
        <time>2023-10-08T08:24:34.039Z</time>
      </trkpt>
      <trkpt lat="36.898154" lon="-3.533860">
        <ele>439.095291</ele>
        <time>2023-10-08T08:24:43.047Z</time>
      </trkpt>
      <trkpt lat="36.898169" lon="-3.533741">
        <ele>438.057809</ele>
        <time>2023-10-08T08:24:53.044Z</time>
      </trkpt>
      <trkpt lat="36.898159" lon="-3.533628">
        <ele>437.078712</ele>
        <time>2023-10-08T08:25:04.074Z</time>
      </trkpt>
      <trkpt lat="36.898178" lon="-3.533509">
        <ele>436.033657</ele>
        <time>2023-10-08T08:25:23.039Z</time>
      </trkpt>
      <trkpt lat="36.898249" lon="-3.533432">
        <ele>435.021557</ele>
        <time>2023-10-08T08:25:34.042Z</time>
      </trkpt>
      <trkpt lat="36.898298" lon="-3.533331">
        <ele>434.004198</ele>
        <time>2023-10-08T08:25:46.042Z</time>
      </trkpt>
      <trkpt lat="36.898350" lon="-3.533239">
        <ele>433.033976</ele>
        <time>2023-10-08T08:26:07.043Z</time>
      </trkpt>
      <trkpt lat="36.898376" lon="-3.533130">
        <ele>432.054401</ele>
        <time>2023-10-08T08:26:23.041Z</time>
      </trkpt>
      <trkpt lat="36.898292" lon="-3.532922">
        <ele>430.047656</ele>
        <time>2023-10-08T08:27:50.048Z</time>
      </trkpt>
      <trkpt lat="36.898320" lon="-3.532805">
        <ele>428.995902</ele>
        <time>2023-10-08T08:28:18.040Z</time>
      </trkpt>
      <trkpt lat="36.898366" lon="-3.532694">
        <ele>427.919241</ele>
        <time>2023-10-08T08:28:28.064Z</time>
      </trkpt>
      <trkpt lat="36.898371" lon="-3.532574">
        <ele>426.884401</ele>
        <time>2023-10-08T08:28:51.040Z</time>
      </trkpt>
      <trkpt lat="36.898384" lon="-3.532461">
        <ele>425.901228</ele>
        <time>2023-10-08T08:29:18.041Z</time>
      </trkpt>
      <trkpt lat="36.898426" lon="-3.532356">
        <ele>425.114575</ele>
        <time>2023-10-08T08:29:39.071Z</time>
      </trkpt>
      <trkpt lat="36.898395" lon="-3.532247">
        <ele>426.407854</ele>
        <time>2023-10-08T08:29:55.042Z</time>
      </trkpt>
      <trkpt lat="36.898485" lon="-3.532258">
        <ele>427.671961</ele>
        <time>2023-10-08T08:31:35.046Z</time>
      </trkpt>
      <trkpt lat="36.898525" lon="-3.532363">
        <ele>428.972138</ele>
        <time>2023-10-08T08:34:16.094Z</time>
      </trkpt>
      <trkpt lat="36.898619" lon="-3.532371">
        <ele>430.289205</ele>
        <time>2023-10-08T08:34:55.047Z</time>
      </trkpt>
      <trkpt lat="36.898871" lon="-3.532264">
        <ele>434.009457</ele>
        <time>2023-10-08T08:39:52.051Z</time>
      </trkpt>
      <trkpt lat="36.898991" lon="-3.532202">
        <ele>435.824485</ele>
        <time>2023-10-08T08:42:15.062Z</time>
      </trkpt>
      <trkpt lat="36.899249" lon="-3.531888">
        <ele>440.857263</ele>
        <time>2023-10-08T08:47:39.121Z</time>
      </trkpt>
      <trkpt lat="36.899356" lon="-3.531485">
        <ele>445.604177</ele>
        <time>2023-10-08T08:48:41.033Z</time>
      </trkpt>
      <trkpt lat="36.899411" lon="-3.531388">
        <ele>446.933442</ele>
        <time>2023-10-08T08:48:48.047Z</time>
      </trkpt>
      <trkpt lat="36.899552" lon="-3.531153">
        <ele>449.986125</ele>
        <time>2023-10-08T08:50:11.044Z</time>
      </trkpt>
      <trkpt lat="36.899570" lon="-3.531039">
        <ele>447.812514</ele>
        <time>2023-10-08T08:50:26.028Z</time>
      </trkpt>
      <trkpt lat="36.899604" lon="-3.530935">
        <ele>445.710842</ele>
        <time>2023-10-08T08:50:44.062Z</time>
      </trkpt>
      <trkpt lat="36.899614" lon="-3.530822">
        <ele>443.584204</ele>
        <time>2023-10-08T08:51:01.077Z</time>
      </trkpt>
      <trkpt lat="36.899650" lon="-3.530697">
        <ele>441.098990</ele>
        <time>2023-10-08T08:52:02.086Z</time>
      </trkpt>
      <trkpt lat="36.899718" lon="-3.530623">
        <ele>438.990425</ele>
        <time>2023-10-08T08:52:10.049Z</time>
      </trkpt>
      <trkpt lat="36.899771" lon="-3.530520">
        <ele>436.699353</ele>
        <time>2023-10-08T08:52:16.051Z</time>
      </trkpt>
      <trkpt lat="36.899813" lon="-3.530416">
        <ele>434.519980</ele>
        <time>2023-10-08T08:52:28.087Z</time>
      </trkpt>
      <trkpt lat="36.899816" lon="-3.530299">
        <ele>432.330303</ele>
        <time>2023-10-08T08:52:44.083Z</time>
      </trkpt>
      <trkpt lat="36.899902" lon="-3.530252">
        <ele>430.134943</ele>
        <time>2023-10-08T08:52:54.088Z</time>
      </trkpt>
      <trkpt lat="36.899960" lon="-3.530165">
        <ele>428.016224</ele>
        <time>2023-10-08T08:53:15.081Z</time>
      </trkpt>
      <trkpt lat="36.899888" lon="-3.530092">
        <ele>425.848045</ele>
        <time>2023-10-08T08:53:35.049Z</time>
      </trkpt>
      <trkpt lat="36.899906" lon="-3.529977">
        <ele>423.656089</ele>
        <time>2023-10-08T08:53:53.054Z</time>
      </trkpt>
      <trkpt lat="36.899815" lon="-3.529945">
        <ele>421.444935</ele>
        <time>2023-10-08T08:54:06.079Z</time>
      </trkpt>
      <trkpt lat="36.899769" lon="-3.529843">
        <ele>419.254477</ele>
        <time>2023-10-08T08:54:34.101Z</time>
      </trkpt>
      <trkpt lat="36.899720" lon="-3.529742">
        <ele>417.044723</ele>
        <time>2023-10-08T08:55:21.081Z</time>
      </trkpt>
      <trkpt lat="36.899705" lon="-3.529625">
        <ele>414.828221</ele>
        <time>2023-10-08T08:55:36.092Z</time>
      </trkpt>
      <trkpt lat="36.899646" lon="-3.529530">
        <ele>412.578231</ele>
        <time>2023-10-08T08:56:01.062Z</time>
      </trkpt>
      <trkpt lat="36.899579" lon="-3.529445">
        <ele>410.345707</ele>
        <time>2023-10-08T08:56:31.077Z</time>
      </trkpt>
      <trkpt lat="36.899520" lon="-3.529358">
        <ele>408.211929</ele>
        <time>2023-10-08T08:56:50.085Z</time>
      </trkpt>
      <trkpt lat="36.899460" lon="-3.529469">
        <ele>407.191931</ele>
        <time>2023-10-08T08:58:03.090Z</time>
      </trkpt>
      <trkpt lat="36.899381" lon="-3.529546">
        <ele>406.328799</ele>
        <time>2023-10-08T08:58:10.082Z</time>
      </trkpt>
      <trkpt lat="36.899320" lon="-3.529644">
        <ele>405.473002</ele>
        <time>2023-10-08T08:58:19.079Z</time>
      </trkpt>
      <trkpt lat="36.899256" lon="-3.529723">
        <ele>404.698062</ele>
        <time>2023-10-08T08:58:33.052Z</time>
      </trkpt>
      <trkpt lat="36.899208" lon="-3.529611">
        <ele>403.822402</ele>
        <time>2023-10-08T08:59:06.048Z</time>
      </trkpt>
      <trkpt lat="36.899190" lon="-3.529496">
        <ele>403.014880</ele>
        <time>2023-10-08T08:59:27.045Z</time>
      </trkpt>
      <trkpt lat="36.899170" lon="-3.529384">
        <ele>402.224060</ele>
        <time>2023-10-08T08:59:37.060Z</time>
      </trkpt>
      <trkpt lat="36.899120" lon="-3.529280">
        <ele>401.387832</ele>
        <time>2023-10-08T08:59:43.049Z</time>
      </trkpt>
      <trkpt lat="36.899055" lon="-3.529199">
        <ele>400.597067</ele>
        <time>2023-10-08T08:59:50.053Z</time>
      </trkpt>
      <trkpt lat="36.898963" lon="-3.529171">
        <ele>399.781134</ele>
        <time>2023-10-08T08:59:56.066Z</time>
      </trkpt>
      <trkpt lat="36.898843" lon="-3.529100">
        <ele>398.637151</ele>
        <time>2023-10-08T09:06:01.086Z</time>
      </trkpt>
      <trkpt lat="36.898714" lon="-3.528832">
        <ele>396.481565</ele>
        <time>2023-10-08T09:10:02.067Z</time>
      </trkpt>
      <trkpt lat="36.898676" lon="-3.528714">
        <ele>395.604945</ele>
        <time>2023-10-08T09:10:12.077Z</time>
      </trkpt>
      <trkpt lat="36.898654" lon="-3.528600">
        <ele>394.796794</ele>
        <time>2023-10-08T09:10:24.081Z</time>
      </trkpt>
      <trkpt lat="36.898608" lon="-3.528499">
        <ele>393.995818</ele>
        <time>2023-10-08T09:10:28.100Z</time>
      </trkpt>
      <trkpt lat="36.898556" lon="-3.528404">
        <ele>393.202483</ele>
        <time>2023-10-08T09:10:38.091Z</time>
      </trkpt>
      <trkpt lat="36.898487" lon="-3.528331">
        <ele>392.624726</ele>
        <time>2023-10-08T09:10:46.042Z</time>
      </trkpt>
      <trkpt lat="36.898396" lon="-3.528289">
        <ele>393.027114</ele>
        <time>2023-10-08T09:10:56.044Z</time>
      </trkpt>
      <trkpt lat="36.898313" lon="-3.528240">
        <ele>393.407866</ele>
        <time>2023-10-08T09:11:05.090Z</time>
      </trkpt>
      <trkpt lat="36.898224" lon="-3.528197">
        <ele>393.803664</ele>
        <time>2023-10-08T09:11:19.103Z</time>
      </trkpt>
      <trkpt lat="36.898154" lon="-3.528123">
        <ele>394.183908</ele>
        <time>2023-10-08T09:11:31.106Z</time>
      </trkpt>
      <trkpt lat="36.898094" lon="-3.528033">
        <ele>394.572614</ele>
        <time>2023-10-08T09:11:41.057Z</time>
      </trkpt>
      <trkpt lat="36.898037" lon="-3.527943">
        <ele>394.953472</ele>
        <time>2023-10-08T09:11:48.062Z</time>
      </trkpt>
      <trkpt lat="36.898013" lon="-3.527832">
        <ele>395.334926</ele>
        <time>2023-10-08T09:12:04.083Z</time>
      </trkpt>
      <trkpt lat="36.897986" lon="-3.527710">
        <ele>395.754863</ele>
        <time>2023-10-08T09:12:13.078Z</time>
      </trkpt>
      <trkpt lat="36.897936" lon="-3.527601">
        <ele>396.171726</ele>
        <time>2023-10-08T09:12:21.078Z</time>
      </trkpt>
      <trkpt lat="36.897904" lon="-3.527478">
        <ele>396.600819</ele>
        <time>2023-10-08T09:12:27.057Z</time>
      </trkpt>
      <trkpt lat="36.897863" lon="-3.527363">
        <ele>397.018517</ele>
        <time>2023-10-08T09:12:34.081Z</time>
      </trkpt>
      <trkpt lat="36.897780" lon="-3.527303">
        <ele>397.416220</ele>
        <time>2023-10-08T09:12:58.058Z</time>
      </trkpt>
      <trkpt lat="36.897625" lon="-3.527282">
        <ele>398.062970</ele>
        <time>2023-10-08T09:13:53.097Z</time>
      </trkpt>
      <trkpt lat="36.897541" lon="-3.527219">
        <ele>398.469298</ele>
        <time>2023-10-08T09:14:00.080Z</time>
      </trkpt>
      <trkpt lat="36.897472" lon="-3.527130">
        <ele>398.880519</ele>
        <time>2023-10-08T09:14:08.083Z</time>
      </trkpt>
      <trkpt lat="36.897380" lon="-3.527079">
        <ele>399.297984</ele>
        <time>2023-10-08T09:14:15.092Z</time>
      </trkpt>
      <trkpt lat="36.897294" lon="-3.527034">
        <ele>399.684713</ele>
        <time>2023-10-08T09:14:23.047Z</time>
      </trkpt>
      <trkpt lat="36.897217" lon="-3.526964">
        <ele>399.856096</ele>
        <time>2023-10-08T09:14:31.049Z</time>
      </trkpt>
      <trkpt lat="36.897148" lon="-3.526882">
        <ele>398.753330</ele>
        <time>2023-10-08T09:14:39.102Z</time>
      </trkpt>
      <trkpt lat="36.897052" lon="-3.527038">
        <ele>396.929692</ele>
        <time>2023-10-08T09:16:17.032Z</time>
      </trkpt>
      <trkpt lat="36.896999" lon="-3.527131">
        <ele>395.871700</ele>
        <time>2023-10-08T09:16:26.055Z</time>
      </trkpt>
      <trkpt lat="36.896903" lon="-3.527171">
        <ele>394.699443</ele>
        <time>2023-10-08T09:16:35.064Z</time>
      </trkpt>
      <trkpt lat="36.896807" lon="-3.527199">
        <ele>393.557450</ele>
        <time>2023-10-08T09:16:44.034Z</time>
      </trkpt>
      <trkpt lat="36.896724" lon="-3.527251">
        <ele>392.481975</ele>
        <time>2023-10-08T09:16:54.083Z</time>
      </trkpt>
      <trkpt lat="36.896672" lon="-3.527347">
        <ele>391.407764</ele>
        <time>2023-10-08T09:17:10.046Z</time>
      </trkpt>
      <trkpt lat="36.896702" lon="-3.527239">
        <ele>390.348548</ele>
        <time>2023-10-08T09:17:34.065Z</time>
      </trkpt>
      <trkpt lat="36.896701" lon="-3.527123">
        <ele>389.273794</ele>
        <time>2023-10-08T09:17:47.067Z</time>
      </trkpt>
      <trkpt lat="36.896710" lon="-3.527008">
        <ele>388.203278</ele>
        <time>2023-10-08T09:17:56.097Z</time>
      </trkpt>
      <trkpt lat="36.896796" lon="-3.526945">
        <ele>387.048606</ele>
        <time>2023-10-08T09:18:04.082Z</time>
      </trkpt>
      <trkpt lat="36.896819" lon="-3.526828">
        <ele>385.932383</ele>
        <time>2023-10-08T09:18:14.048Z</time>
      </trkpt>
      <trkpt lat="36.896786" lon="-3.526719">
        <ele>384.852603</ele>
        <time>2023-10-08T09:18:28.083Z</time>
      </trkpt>
      <trkpt lat="36.896753" lon="-3.526603">
        <ele>383.711940</ele>
        <time>2023-10-08T09:18:39.073Z</time>
      </trkpt>
      <trkpt lat="36.896770" lon="-3.526468">
        <ele>382.445811</ele>
        <time>2023-10-08T09:18:48.089Z</time>
      </trkpt>
      <trkpt lat="36.896797" lon="-3.526359">
        <ele>381.388640</ele>
        <time>2023-10-08T09:18:57.077Z</time>
      </trkpt>
      <trkpt lat="36.896808" lon="-3.526242">
        <ele>380.297220</ele>
        <time>2023-10-08T09:19:04.074Z</time>
      </trkpt>
      <trkpt lat="36.896807" lon="-3.526122">
        <ele>379.185411</ele>
        <time>2023-10-08T09:19:20.059Z</time>
      </trkpt>
      <trkpt lat="36.896760" lon="-3.526015">
        <ele>378.539501</ele>
        <time>2023-10-08T09:19:30.092Z</time>
      </trkpt>
      <trkpt lat="36.896666" lon="-3.525985">
        <ele>377.898356</ele>
        <time>2023-10-08T09:19:38.077Z</time>
      </trkpt>
      <trkpt lat="36.896562" lon="-3.525964">
        <ele>377.202133</ele>
        <time>2023-10-08T09:19:44.046Z</time>
      </trkpt>
      <trkpt lat="36.896472" lon="-3.525924">
        <ele>376.570884</ele>
        <time>2023-10-08T09:19:51.045Z</time>
      </trkpt>
      <trkpt lat="36.896376" lon="-3.525905">
        <ele>375.928537</ele>
        <time>2023-10-08T09:19:59.063Z</time>
      </trkpt>
      <trkpt lat="36.896287" lon="-3.525880">
        <ele>375.325692</ele>
        <time>2023-10-08T09:20:06.057Z</time>
      </trkpt>
      <trkpt lat="36.896208" lon="-3.525817">
        <ele>374.706454</ele>
        <time>2023-10-08T09:20:18.074Z</time>
      </trkpt>
      <trkpt lat="36.896127" lon="-3.525764">
        <ele>374.102278</ele>
        <time>2023-10-08T09:20:28.047Z</time>
      </trkpt>
      <trkpt lat="36.896037" lon="-3.525749">
        <ele>373.502222</ele>
        <time>2023-10-08T09:20:36.049Z</time>
      </trkpt>
      <trkpt lat="36.895945" lon="-3.525692">
        <ele>372.823667</ele>
        <time>2023-10-08T09:20:45.055Z</time>
      </trkpt>
      <trkpt lat="36.895858" lon="-3.525631">
        <ele>372.164476</ele>
        <time>2023-10-08T09:20:51.051Z</time>
      </trkpt>
      <trkpt lat="36.895774" lon="-3.525561">
        <ele>371.497348</ele>
        <time>2023-10-08T09:20:58.044Z</time>
      </trkpt>
      <trkpt lat="36.895758" lon="-3.525441">
        <ele>370.854360</ele>
        <time>2023-10-08T09:21:05.077Z</time>
      </trkpt>
      <trkpt lat="36.895806" lon="-3.525338">
        <ele>370.224292</ele>
        <time>2023-10-08T09:21:12.085Z</time>
      </trkpt>
      <trkpt lat="36.895865" lon="-3.525244">
        <ele>369.592735</ele>
        <time>2023-10-08T09:21:20.058Z</time>
      </trkpt>
      <trkpt lat="36.895835" lon="-3.525129">
        <ele>368.953409</ele>
        <time>2023-10-08T09:21:30.084Z</time>
      </trkpt>
      <trkpt lat="36.895765" lon="-3.525045">
        <ele>368.312223</ele>
        <time>2023-10-08T09:21:38.076Z</time>
      </trkpt>
      <trkpt lat="36.895707" lon="-3.524956">
        <ele>367.705432</ele>
        <time>2023-10-08T09:21:44.115Z</time>
      </trkpt>
      <trkpt lat="36.895632" lon="-3.524892">
        <ele>367.296833</ele>
        <time>2023-10-08T09:21:51.090Z</time>
      </trkpt>
      <trkpt lat="36.895561" lon="-3.524800">
        <ele>367.296833</ele>
        <time>2023-10-08T09:21:59.082Z</time>
      </trkpt>
      <trkpt lat="36.895491" lon="-3.524712">
        <ele>367.296833</ele>
        <time>2023-10-08T09:22:09.080Z</time>
      </trkpt>
      <trkpt lat="36.895409" lon="-3.524642">
        <ele>367.296833</ele>
        <time>2023-10-08T09:22:16.061Z</time>
      </trkpt>
      <trkpt lat="36.895327" lon="-3.524586">
        <ele>367.296833</ele>
        <time>2023-10-08T09:22:23.045Z</time>
      </trkpt>
      <trkpt lat="36.895248" lon="-3.524509">
        <ele>367.296833</ele>
        <time>2023-10-08T09:22:31.061Z</time>
      </trkpt>
      <trkpt lat="36.895180" lon="-3.524431">
        <ele>367.296833</ele>
        <time>2023-10-08T09:22:38.109Z</time>
      </trkpt>
      <trkpt lat="36.895107" lon="-3.524351">
        <ele>367.296833</ele>
        <time>2023-10-08T09:22:45.079Z</time>
      </trkpt>
      <trkpt lat="36.895036" lon="-3.524262">
        <ele>367.296833</ele>
        <time>2023-10-08T09:22:53.063Z</time>
      </trkpt>
      <trkpt lat="36.894987" lon="-3.524158">
        <ele>367.296833</ele>
        <time>2023-10-08T09:23:08.046Z</time>
      </trkpt>
      <trkpt lat="36.894907" lon="-3.524086">
        <ele>367.296833</ele>
        <time>2023-10-08T09:23:16.043Z</time>
      </trkpt>
      <trkpt lat="36.894832" lon="-3.524013">
        <ele>367.296833</ele>
        <time>2023-10-08T09:23:23.078Z</time>
      </trkpt>
      <trkpt lat="36.894753" lon="-3.523938">
        <ele>367.296833</ele>
        <time>2023-10-08T09:23:30.036Z</time>
      </trkpt>
      <trkpt lat="36.894689" lon="-3.523859">
        <ele>367.296833</ele>
        <time>2023-10-08T09:23:37.092Z</time>
      </trkpt>
      <trkpt lat="36.894622" lon="-3.523767">
        <ele>367.296833</ele>
        <time>2023-10-08T09:23:45.082Z</time>
      </trkpt>
      <trkpt lat="36.894548" lon="-3.523703">
        <ele>367.296833</ele>
        <time>2023-10-08T09:23:53.061Z</time>
      </trkpt>
      <trkpt lat="36.894480" lon="-3.523608">
        <ele>367.296833</ele>
        <time>2023-10-08T09:24:01.045Z</time>
      </trkpt>
      <trkpt lat="36.894421" lon="-3.523513">
        <ele>367.296833</ele>
        <time>2023-10-08T09:24:07.063Z</time>
      </trkpt>
      <trkpt lat="36.894354" lon="-3.523433">
        <ele>367.296833</ele>
        <time>2023-10-08T09:24:14.046Z</time>
      </trkpt>
      <trkpt lat="36.894296" lon="-3.523341">
        <ele>367.296833</ele>
        <time>2023-10-08T09:24:22.062Z</time>
      </trkpt>
      <trkpt lat="36.894258" lon="-3.523237">
        <ele>367.296833</ele>
        <time>2023-10-08T09:24:31.065Z</time>
      </trkpt>
      <trkpt lat="36.894234" lon="-3.523127">
        <ele>367.296833</ele>
        <time>2023-10-08T09:24:41.079Z</time>
      </trkpt>
      <trkpt lat="36.894237" lon="-3.523130">
        <ele>367.296833</ele>
        <time>2023-10-08T09:24:57.181Z</time>
      </trkpt>
    </trkseg>
  </trk>
</gpx>